sensor_id;sensor_type;location;lat;lon;timestamp;P1;durP1;ratioP1;P2;durP2;ratioP2
58896;SDS011;44677;52.378;10.400;2023-04-09T00:02:21;66.10;;;28.60;;
58896;SDS011;44677;52.378;10.400;2023-04-09T00:04:47;62.90;;;28.30;;
58896;SDS011;44677;52.378;10.400;2023-04-09T00:07:12;57.40;;;26.70;;
58896;SDS011;44677;52.378;10.400;2023-04-09T00:09:37;54.00;;;26.10;;
58896;SDS011;44677;52.378;10.400;2023-04-09T00:12:03;55.90;;;27.10;;
58896;SDS011;44677;52.378;10.400;2023-04-09T00:14:28;56.30;;;25.70;;
58896;SDS011;44677;52.378;10.400;2023-04-09T00:16:54;55.90;;;27.60;;
58896;SDS011;44677;52.378;10.400;2023-04-09T00:19:19;58.00;;;26.40;;
58896;SDS011;44677;52.378;10.400;2023-04-09T00:21:45;51.70;;;26.30;;
58896;SDS011;44677;52.378;10.400;2023-04-09T00:24:10;58.10;;;26.60;;
58896;SDS011;44677;52.378;10.400;2023-04-09T00:26:36;57.20;;;26.30;;
58896;SDS011;44677;52.378;10.400;2023-04-09T00:29:01;69.20;;;27.80;;
58896;SDS011;44677;52.378;10.400;2023-04-09T00:31:27;56.80;;;26.30;;
58896;SDS011;44677;52.378;10.400;2023-04-09T00:33:52;46.50;;;25.80;;
58896;SDS011;44677;52.378;10.400;2023-04-09T00:36:17;59.40;;;26.30;;
58896;SDS011;44677;52.378;10.400;2023-04-09T00:38:43;49.90;;;26.50;;
58896;SDS011;44677;52.378;10.400;2023-04-09T00:41:09;78.70;;;26.70;;
58896;SDS011;44677;52.378;10.400;2023-04-09T00:43:35;60.20;;;24.90;;
58896;SDS011;44677;52.378;10.400;2023-04-09T00:46:00;52.10;;;22.80;;
58896;SDS011;44677;52.378;10.400;2023-04-09T00:48:26;66.70;;;23.60;;
58896;SDS011;44677;52.378;10.400;2023-04-09T00:50:52;54.20;;;21.70;;
58896;SDS011;44677;52.378;10.400;2023-04-09T00:53:17;43.40;;;22.10;;
58896;SDS011;44677;52.378;10.400;2023-04-09T00:55:43;53.30;;;23.80;;
58896;SDS011;44677;52.378;10.400;2023-04-09T00:58:10;49.70;;;22.80;;
58896;SDS011;44677;52.378;10.400;2023-04-09T01:00:35;70.40;;;23.00;;
58896;SDS011;44677;52.378;10.400;2023-04-09T01:03:01;62.60;;;21.60;;
58896;SDS011;44677;52.378;10.400;2023-04-09T01:05:30;86.90;;;22.80;;
58896;SDS011;44677;52.378;10.400;2023-04-09T01:10:56;46.40;;;20.80;;
58896;SDS011;44677;52.378;10.400;2023-04-09T01:13:29;40.00;;;21.60;;
58896;SDS011;44677;52.378;10.400;2023-04-09T01:16:04;34.10;;;19.20;;
58896;SDS011;44677;52.378;10.400;2023-04-09T01:21:06;36.80;;;19.80;;
58896;SDS011;44677;52.378;10.400;2023-04-09T01:29:24;37.90;;;19.40;;
58896;SDS011;44677;52.378;10.400;2023-04-09T01:31:50;32.90;;;19.90;;
58896;SDS011;44677;52.378;10.400;2023-04-09T01:34:16;37.10;;;18.00;;
58896;SDS011;44677;52.378;10.400;2023-04-09T01:36:44;42.50;;;20.80;;
58896;SDS011;44677;52.378;10.400;2023-04-09T01:39:15;32.80;;;19.60;;
58896;SDS011;44677;52.378;10.400;2023-04-09T01:41:40;33.00;;;20.20;;
58896;SDS011;44677;52.378;10.400;2023-04-09T01:44:06;39.10;;;21.70;;
58896;SDS011;44677;52.378;10.400;2023-04-09T01:49:00;40.80;;;23.10;;
58896;SDS011;44677;52.378;10.400;2023-04-09T01:51:26;36.90;;;20.90;;
58896;SDS011;44677;52.378;10.400;2023-04-09T01:53:51;33.50;;;19.80;;
58896;SDS011;44677;52.378;10.400;2023-04-09T01:56:16;32.30;;;19.10;;
58896;SDS011;44677;52.378;10.400;2023-04-09T01:58:42;37.80;;;19.20;;
58896;SDS011;44677;52.378;10.400;2023-04-09T02:01:25;42.50;;;20.10;;
58896;SDS011;44677;52.378;10.400;2023-04-09T02:03:57;34.80;;;19.30;;
58896;SDS011;44677;52.378;10.400;2023-04-09T02:06:39;38.60;;;19.00;;
58896;SDS011;44677;52.378;10.400;2023-04-09T02:09:08;32.50;;;19.20;;
58896;SDS011;44677;52.378;10.400;2023-04-09T02:11:36;33.00;;;20.30;;
58896;SDS011;44677;52.378;10.400;2023-04-09T02:14:03;40.70;;;19.80;;
58896;SDS011;44677;52.378;10.400;2023-04-09T02:16:30;28.60;;;18.10;;
58896;SDS011;44677;52.378;10.400;2023-04-09T02:18:56;38.50;;;18.90;;
58896;SDS011;44677;52.378;10.400;2023-04-09T02:21:22;36.30;;;22.50;;
58896;SDS011;44677;52.378;10.400;2023-04-09T02:23:48;44.10;;;26.10;;
58896;SDS011;44677;52.378;10.400;2023-04-09T02:26:14;39.80;;;20.50;;
58896;SDS011;44677;52.378;10.400;2023-04-09T02:28:39;42.40;;;20.00;;
58896;SDS011;44677;52.378;10.400;2023-04-09T02:31:05;43.00;;;19.60;;
58896;SDS011;44677;52.378;10.400;2023-04-09T02:33:30;48.50;;;19.30;;
58896;SDS011;44677;52.378;10.400;2023-04-09T02:35:55;41.10;;;22.50;;
58896;SDS011;44677;52.378;10.400;2023-04-09T02:38:21;44.40;;;20.50;;
58896;SDS011;44677;52.378;10.400;2023-04-09T02:40:46;37.60;;;21.10;;
58896;SDS011;44677;52.378;10.400;2023-04-09T02:43:12;63.90;;;21.00;;
58896;SDS011;44677;52.378;10.400;2023-04-09T02:45:37;37.60;;;19.80;;
58896;SDS011;44677;52.378;10.400;2023-04-09T02:48:03;52.00;;;19.80;;
58896;SDS011;44677;52.378;10.400;2023-04-09T02:50:32;44.20;;;20.80;;
58896;SDS011;44677;52.378;10.400;2023-04-09T02:52:57;55.80;;;22.00;;
58896;SDS011;44677;52.378;10.400;2023-04-09T02:55:23;40.40;;;20.80;;
58896;SDS011;44677;52.378;10.400;2023-04-09T02:57:48;55.70;;;22.10;;
58896;SDS011;44677;52.378;10.400;2023-04-09T03:00:14;36.60;;;21.00;;
58896;SDS011;44677;52.378;10.400;2023-04-09T03:02:39;37.30;;;20.70;;
58896;SDS011;44677;52.378;10.400;2023-04-09T03:05:05;34.20;;;20.10;;
58896;SDS011;44677;52.378;10.400;2023-04-09T03:07:30;40.40;;;21.20;;
58896;SDS011;44677;52.378;10.400;2023-04-09T03:09:56;49.50;;;20.80;;
58896;SDS011;44677;52.378;10.400;2023-04-09T03:12:22;41.90;;;18.90;;
58896;SDS011;44677;52.378;10.400;2023-04-09T03:14:47;33.30;;;19.70;;
58896;SDS011;44677;52.378;10.400;2023-04-09T03:17:13;39.40;;;19.40;;
58896;SDS011;44677;52.378;10.400;2023-04-09T03:19:38;46.40;;;18.80;;
58896;SDS011;44677;52.378;10.400;2023-04-09T03:22:03;30.60;;;19.00;;
58896;SDS011;44677;52.378;10.400;2023-04-09T03:24:30;33.00;;;18.20;;
58896;SDS011;44677;52.378;10.400;2023-04-09T03:26:58;31.10;;;18.20;;
58896;SDS011;44677;52.378;10.400;2023-04-09T03:29:24;36.50;;;18.30;;
58896;SDS011;44677;52.378;10.400;2023-04-09T03:31:50;30.00;;;18.20;;
58896;SDS011;44677;52.378;10.400;2023-04-09T03:34:15;40.30;;;17.50;;
58896;SDS011;44677;52.378;10.400;2023-04-09T03:36:41;34.10;;;17.00;;
58896;SDS011;44677;52.378;10.400;2023-04-09T03:39:12;55.50;;;17.90;;
58896;SDS011;44677;52.378;10.400;2023-04-09T03:41:40;40.70;;;17.40;;
58896;SDS011;44677;52.378;10.400;2023-04-09T03:44:09;31.50;;;16.20;;
58896;SDS011;44677;52.378;10.400;2023-04-09T03:46:43;31.10;;;17.60;;
58896;SDS011;44677;52.378;10.400;2023-04-09T03:49:11;37.90;;;18.50;;
58896;SDS011;44677;52.378;10.400;2023-04-09T03:51:40;40.80;;;17.80;;
58896;SDS011;44677;52.378;10.400;2023-04-09T03:54:05;32.60;;;17.60;;
58896;SDS011;44677;52.378;10.400;2023-04-09T03:56:31;45.30;;;18.10;;
58896;SDS011;44677;52.378;10.400;2023-04-09T03:58:57;34.50;;;17.10;;
58896;SDS011;44677;52.378;10.400;2023-04-09T04:01:26;55.70;;;17.50;;
58896;SDS011;44677;52.378;10.400;2023-04-09T04:03:54;36.80;;;16.50;;
58896;SDS011;44677;52.378;10.400;2023-04-09T04:06:22;40.70;;;17.30;;
58896;SDS011;44677;52.378;10.400;2023-04-09T04:08:53;42.50;;;17.00;;
58896;SDS011;44677;52.378;10.400;2023-04-09T04:11:22;43.10;;;18.00;;
58896;SDS011;44677;52.378;10.400;2023-04-09T04:13:51;38.40;;;17.40;;
58896;SDS011;44677;52.378;10.400;2023-04-09T04:16:16;47.60;;;17.50;;
58896;SDS011;44677;52.378;10.400;2023-04-09T04:18:41;33.20;;;17.60;;
58896;SDS011;44677;52.378;10.400;2023-04-09T04:21:14;30.90;;;16.90;;
58896;SDS011;44677;52.378;10.400;2023-04-09T04:23:42;31.50;;;17.80;;
58896;SDS011;44677;52.378;10.400;2023-04-09T04:26:27;37.80;;;16.90;;
58896;SDS011;44677;52.378;10.400;2023-04-09T04:28:53;34.80;;;18.40;;
58896;SDS011;44677;52.378;10.400;2023-04-09T04:31:34;34.10;;;16.70;;
58896;SDS011;44677;52.378;10.400;2023-04-09T04:33:59;25.30;;;16.70;;
58896;SDS011;44677;52.378;10.400;2023-04-09T04:36:25;30.80;;;17.90;;
58896;SDS011;44677;52.378;10.400;2023-04-09T04:38:51;26.50;;;17.30;;
58896;SDS011;44677;52.378;10.400;2023-04-09T04:41:30;31.20;;;18.00;;
58896;SDS011;44677;52.378;10.400;2023-04-09T04:44:05;27.40;;;16.40;;
58896;SDS011;44677;52.378;10.400;2023-04-09T04:46:30;32.00;;;18.30;;
58896;SDS011;44677;52.378;10.400;2023-04-09T04:48:56;27.20;;;17.20;;
58896;SDS011;44677;52.378;10.400;2023-04-09T04:51:21;30.10;;;16.60;;
58896;SDS011;44677;52.378;10.400;2023-04-09T04:53:57;27.30;;;17.40;;
58896;SDS011;44677;52.378;10.400;2023-04-09T04:56:23;25.40;;;17.60;;
58896;SDS011;44677;52.378;10.400;2023-04-09T04:58:59;31.80;;;19.00;;
58896;SDS011;44677;52.378;10.400;2023-04-09T05:01:27;24.50;;;16.90;;
58896;SDS011;44677;52.378;10.400;2023-04-09T05:03:52;27.90;;;16.90;;
58896;SDS011;44677;52.378;10.400;2023-04-09T05:06:25;28.00;;;16.30;;
58896;SDS011;44677;52.378;10.400;2023-04-09T05:08:54;26.60;;;18.30;;
58896;SDS011;44677;52.378;10.400;2023-04-09T05:11:25;24.60;;;17.60;;
58896;SDS011;44677;52.378;10.400;2023-04-09T05:13:51;28.10;;;17.20;;
58896;SDS011;44677;52.378;10.400;2023-04-09T05:16:18;26.40;;;16.40;;
58896;SDS011;44677;52.378;10.400;2023-04-09T05:18:49;27.70;;;18.70;;
58896;SDS011;44677;52.378;10.400;2023-04-09T05:21:15;29.40;;;18.20;;
58896;SDS011;44677;52.378;10.400;2023-04-09T05:23:41;29.90;;;18.00;;
58896;SDS011;44677;52.378;10.400;2023-04-09T05:26:06;30.80;;;18.80;;
58896;SDS011;44677;52.378;10.400;2023-04-09T05:28:41;27.90;;;18.00;;
58896;SDS011;44677;52.378;10.400;2023-04-09T05:31:11;29.70;;;18.20;;
58896;SDS011;44677;52.378;10.400;2023-04-09T05:33:42;31.70;;;19.30;;
58896;SDS011;44677;52.378;10.400;2023-04-09T05:36:14;28.40;;;18.40;;
58896;SDS011;44677;52.378;10.400;2023-04-09T05:38:41;31.20;;;19.00;;
58896;SDS011;44677;52.378;10.400;2023-04-09T05:41:08;30.70;;;20.20;;
58896;SDS011;44677;52.378;10.400;2023-04-09T05:43:35;29.40;;;18.60;;
58896;SDS011;44677;52.378;10.400;2023-04-09T05:46:01;28.00;;;18.80;;
58896;SDS011;44677;52.378;10.400;2023-04-09T05:48:27;28.40;;;18.70;;
58896;SDS011;44677;52.378;10.400;2023-04-09T05:50:52;31.60;;;19.10;;
58896;SDS011;44677;52.378;10.400;2023-04-09T05:53:18;30.90;;;19.80;;
58896;SDS011;44677;52.378;10.400;2023-04-09T05:55:44;32.00;;;19.30;;
58896;SDS011;44677;52.378;10.400;2023-04-09T05:58:11;29.30;;;19.70;;
58896;SDS011;44677;52.378;10.400;2023-04-09T06:00:37;33.20;;;19.00;;
58896;SDS011;44677;52.378;10.400;2023-04-09T06:03:03;30.80;;;18.00;;
58896;SDS011;44677;52.378;10.400;2023-04-09T06:05:28;28.60;;;18.90;;
58896;SDS011;44677;52.378;10.400;2023-04-09T06:07:54;31.60;;;18.50;;
58896;SDS011;44677;52.378;10.400;2023-04-09T06:10:19;31.20;;;18.80;;
58896;SDS011;44677;52.378;10.400;2023-04-09T06:12:46;29.80;;;18.50;;
58896;SDS011;44677;52.378;10.400;2023-04-09T06:15:12;33.60;;;19.00;;
58896;SDS011;44677;52.378;10.400;2023-04-09T06:17:37;31.80;;;19.40;;
58896;SDS011;44677;52.378;10.400;2023-04-09T06:20:02;31.20;;;18.90;;
58896;SDS011;44677;52.378;10.400;2023-04-09T06:22:28;34.00;;;19.60;;
58896;SDS011;44677;52.378;10.400;2023-04-09T06:24:54;32.30;;;19.30;;
58896;SDS011;44677;52.378;10.400;2023-04-09T06:27:19;33.00;;;18.90;;
58896;SDS011;44677;52.378;10.400;2023-04-09T06:29:46;32.90;;;20.30;;
58896;SDS011;44677;52.378;10.400;2023-04-09T06:32:11;37.10;;;19.40;;
58896;SDS011;44677;52.378;10.400;2023-04-09T06:34:36;34.20;;;18.80;;
58896;SDS011;44677;52.378;10.400;2023-04-09T06:37:02;31.20;;;19.00;;
58896;SDS011;44677;52.378;10.400;2023-04-09T06:39:27;33.20;;;17.80;;
58896;SDS011;44677;52.378;10.400;2023-04-09T06:41:53;37.00;;;18.80;;
58896;SDS011;44677;52.378;10.400;2023-04-09T06:44:29;30.40;;;18.00;;
58896;SDS011;44677;52.378;10.400;2023-04-09T06:46:55;34.80;;;18.70;;
58896;SDS011;44677;52.378;10.400;2023-04-09T06:49:20;35.10;;;18.30;;
58896;SDS011;44677;52.378;10.400;2023-04-09T06:51:46;34.30;;;18.00;;
58896;SDS011;44677;52.378;10.400;2023-04-09T06:54:11;32.60;;;18.50;;
58896;SDS011;44677;52.378;10.400;2023-04-09T06:56:36;31.70;;;17.90;;
58896;SDS011;44677;52.378;10.400;2023-04-09T06:59:02;33.30;;;18.00;;
58896;SDS011;44677;52.378;10.400;2023-04-09T07:01:27;35.30;;;18.40;;
58896;SDS011;44677;52.378;10.400;2023-04-09T07:03:53;36.50;;;19.30;;
58896;SDS011;44677;52.378;10.400;2023-04-09T07:06:18;32.60;;;18.70;;
58896;SDS011;44677;52.378;10.400;2023-04-09T07:08:43;34.30;;;19.40;;
58896;SDS011;44677;52.378;10.400;2023-04-09T07:11:09;33.60;;;18.30;;
58896;SDS011;44677;52.378;10.400;2023-04-09T07:13:34;33.70;;;19.00;;
58896;SDS011;44677;52.378;10.400;2023-04-09T07:16:00;37.10;;;18.90;;
58896;SDS011;44677;52.378;10.400;2023-04-09T07:18:25;35.30;;;20.10;;
58896;SDS011;44677;52.378;10.400;2023-04-09T07:20:51;34.60;;;18.70;;
58896;SDS011;44677;52.378;10.400;2023-04-09T07:23:17;38.20;;;19.90;;
58896;SDS011;44677;52.378;10.400;2023-04-09T07:25:42;36.00;;;19.80;;
58896;SDS011;44677;52.378;10.400;2023-04-09T07:28:07;39.60;;;20.80;;
58896;SDS011;44677;52.378;10.400;2023-04-09T07:30:33;35.60;;;19.00;;
58896;SDS011;44677;52.378;10.400;2023-04-09T07:32:59;32.00;;;17.20;;
58896;SDS011;44677;52.378;10.400;2023-04-09T07:35:25;41.70;;;20.30;;
58896;SDS011;44677;52.378;10.400;2023-04-09T07:37:50;35.40;;;19.50;;
58896;SDS011;44677;52.378;10.400;2023-04-09T07:40:16;39.70;;;20.60;;
58896;SDS011;44677;52.378;10.400;2023-04-09T07:42:41;34.30;;;20.20;;
58896;SDS011;44677;52.378;10.400;2023-04-09T07:45:06;37.90;;;21.10;;
58896;SDS011;44677;52.378;10.400;2023-04-09T07:47:32;37.10;;;19.90;;
58896;SDS011;44677;52.378;10.400;2023-04-09T07:49:58;39.10;;;20.30;;
58896;SDS011;44677;52.378;10.400;2023-04-09T07:52:23;35.40;;;19.50;;
58896;SDS011;44677;52.378;10.400;2023-04-09T07:54:48;39.10;;;19.80;;
58896;SDS011;44677;52.378;10.400;2023-04-09T07:57:14;33.40;;;19.50;;
58896;SDS011;44677;52.378;10.400;2023-04-09T07:59:40;34.80;;;19.50;;
58896;SDS011;44677;52.378;10.400;2023-04-09T08:02:06;35.80;;;19.50;;
58896;SDS011;44677;52.378;10.400;2023-04-09T08:04:31;35.80;;;19.50;;
58896;SDS011;44677;52.378;10.400;2023-04-09T08:06:57;36.20;;;20.00;;
58896;SDS011;44677;52.378;10.400;2023-04-09T08:09:22;35.50;;;19.70;;
58896;SDS011;44677;52.378;10.400;2023-04-09T08:11:47;33.20;;;18.90;;
58896;SDS011;44677;52.378;10.400;2023-04-09T08:14:14;33.70;;;18.30;;
58896;SDS011;44677;52.378;10.400;2023-04-09T08:16:41;40.10;;;19.70;;
58896;SDS011;44677;52.378;10.400;2023-04-09T08:19:09;33.30;;;20.00;;
58896;SDS011;44677;52.378;10.400;2023-04-09T08:21:38;32.50;;;20.10;;
58896;SDS011;44677;52.378;10.400;2023-04-09T08:24:07;38.60;;;19.90;;
58896;SDS011;44677;52.378;10.400;2023-04-09T08:26:36;32.40;;;18.30;;
58896;SDS011;44677;52.378;10.400;2023-04-09T08:29:06;37.30;;;20.10;;
58896;SDS011;44677;52.378;10.400;2023-04-09T08:31:32;35.80;;;20.10;;
58896;SDS011;44677;52.378;10.400;2023-04-09T08:33:58;36.40;;;20.20;;
58896;SDS011;44677;52.378;10.400;2023-04-09T08:36:23;33.00;;;18.40;;
58896;SDS011;44677;52.378;10.400;2023-04-09T08:38:50;37.40;;;19.90;;
58896;SDS011;44677;52.378;10.400;2023-04-09T08:41:17;33.30;;;18.90;;
58896;SDS011;44677;52.378;10.400;2023-04-09T08:43:45;38.80;;;20.60;;
58896;SDS011;44677;52.378;10.400;2023-04-09T08:46:12;37.40;;;20.80;;
58896;SDS011;44677;52.378;10.400;2023-04-09T08:48:41;38.50;;;20.40;;
58896;SDS011;44677;52.378;10.400;2023-04-09T08:51:13;36.70;;;20.80;;
58896;SDS011;44677;52.378;10.400;2023-04-09T08:53:41;33.70;;;19.00;;
58896;SDS011;44677;52.378;10.400;2023-04-09T08:56:09;34.70;;;20.10;;
58896;SDS011;44677;52.378;10.400;2023-04-09T08:58:34;35.20;;;19.10;;
58896;SDS011;44677;52.378;10.400;2023-04-09T09:01:00;35.10;;;20.60;;
58896;SDS011;44677;52.378;10.400;2023-04-09T09:03:26;36.10;;;20.40;;
58896;SDS011;44677;52.378;10.400;2023-04-09T09:05:51;34.40;;;20.70;;
58896;SDS011;44677;52.378;10.400;2023-04-09T09:08:23;37.60;;;20.90;;
58896;SDS011;44677;52.378;10.400;2023-04-09T09:10:50;34.50;;;19.20;;
58896;SDS011;44677;52.378;10.400;2023-04-09T09:15:48;36.10;;;21.30;;
58896;SDS011;44677;52.378;10.400;2023-04-09T09:18:18;39.40;;;21.40;;
58896;SDS011;44677;52.378;10.400;2023-04-09T09:20:44;35.30;;;20.20;;
58896;SDS011;44677;52.378;10.400;2023-04-09T09:23:09;35.90;;;21.10;;
58896;SDS011;44677;52.378;10.400;2023-04-09T09:25:38;37.50;;;21.60;;
58896;SDS011;44677;52.378;10.400;2023-04-09T09:28:14;35.80;;;21.50;;
58896;SDS011;44677;52.378;10.400;2023-04-09T09:30:40;37.90;;;20.60;;
58896;SDS011;44677;52.378;10.400;2023-04-09T09:33:09;35.40;;;20.60;;
58896;SDS011;44677;52.378;10.400;2023-04-09T09:35:45;38.90;;;21.70;;
58896;SDS011;44677;52.378;10.400;2023-04-09T09:38:13;40.10;;;22.30;;
58896;SDS011;44677;52.378;10.400;2023-04-09T09:40:40;33.90;;;20.00;;
58896;SDS011;44677;52.378;10.400;2023-04-09T09:43:06;36.40;;;20.60;;
58896;SDS011;44677;52.378;10.400;2023-04-09T09:45:31;34.90;;;20.70;;
58896;SDS011;44677;52.378;10.400;2023-04-09T09:47:57;35.20;;;20.50;;
58896;SDS011;44677;52.378;10.400;2023-04-09T09:50:23;38.30;;;22.10;;
58896;SDS011;44677;52.378;10.400;2023-04-09T09:52:49;33.20;;;19.90;;
58896;SDS011;44677;52.378;10.400;2023-04-09T09:55:19;39.40;;;22.20;;
58896;SDS011;44677;52.378;10.400;2023-04-09T10:00:11;36.40;;;20.30;;
58896;SDS011;44677;52.378;10.400;2023-04-09T10:02:43;38.80;;;21.50;;
58896;SDS011;44677;52.378;10.400;2023-04-09T10:05:12;35.40;;;20.40;;
58896;SDS011;44677;52.378;10.400;2023-04-09T10:07:38;35.10;;;20.90;;
58896;SDS011;44677;52.378;10.400;2023-04-09T10:10:05;35.70;;;21.50;;
58896;SDS011;44677;52.378;10.400;2023-04-09T10:12:33;33.10;;;19.60;;
58896;SDS011;44677;52.378;10.400;2023-04-09T10:14:58;37.50;;;22.00;;
58896;SDS011;44677;52.378;10.400;2023-04-09T10:17:29;38.90;;;22.20;;
58896;SDS011;44677;52.378;10.400;2023-04-09T10:20:10;35.10;;;21.00;;
58896;SDS011;44677;52.378;10.400;2023-04-09T10:22:42;32.50;;;20.10;;
58896;SDS011;44677;52.378;10.400;2023-04-09T10:25:12;30.80;;;20.10;;
58896;SDS011;44677;52.378;10.400;2023-04-09T10:27:37;31.10;;;20.60;;
58896;SDS011;44677;52.378;10.400;2023-04-09T10:30:03;32.40;;;19.80;;
58896;SDS011;44677;52.378;10.400;2023-04-09T10:32:33;30.20;;;19.80;;
58896;SDS011;44677;52.378;10.400;2023-04-09T10:35:00;32.20;;;20.90;;
58896;SDS011;44677;52.378;10.400;2023-04-09T10:37:27;33.00;;;20.70;;
58896;SDS011;44677;52.378;10.400;2023-04-09T10:39:53;30.20;;;20.10;;
58896;SDS011;44677;52.378;10.400;2023-04-09T10:47:34;31.20;;;20.10;;
58896;SDS011;44677;52.378;10.400;2023-04-09T10:50:14;31.60;;;19.60;;
58896;SDS011;44677;52.378;10.400;2023-04-09T10:52:51;28.70;;;19.90;;
58896;SDS011;44677;52.378;10.400;2023-04-09T10:55:32;30.50;;;20.70;;
58896;SDS011;44677;52.378;10.400;2023-04-09T10:58:05;32.70;;;20.40;;
58896;SDS011;44677;52.378;10.400;2023-04-09T11:00:41;31.40;;;19.10;;
58896;SDS011;44677;52.378;10.400;2023-04-09T11:03:18;30.70;;;19.70;;
58896;SDS011;44677;52.378;10.400;2023-04-09T11:08:29;29.60;;;19.50;;
58896;SDS011;44677;52.378;10.400;2023-04-09T11:11:00;28.40;;;19.20;;
58896;SDS011;44677;52.378;10.400;2023-04-09T11:13:27;27.50;;;18.90;;
58896;SDS011;44677;52.378;10.400;2023-04-09T11:15:53;31.20;;;20.30;;
58896;SDS011;44677;52.378;10.400;2023-04-09T11:18:21;29.20;;;19.20;;
58896;SDS011;44677;52.378;10.400;2023-04-09T11:20:47;25.70;;;18.70;;
58896;SDS011;44677;52.378;10.400;2023-04-09T11:23:14;27.30;;;18.90;;
58896;SDS011;44677;52.378;10.400;2023-04-09T11:28:05;27.20;;;18.30;;
58896;SDS011;44677;52.378;10.400;2023-04-09T11:30:32;30.00;;;19.80;;
58896;SDS011;44677;52.378;10.400;2023-04-09T11:32:58;26.60;;;18.40;;
58896;SDS011;44677;52.378;10.400;2023-04-09T11:35:24;27.90;;;18.90;;
58896;SDS011;44677;52.378;10.400;2023-04-09T11:37:50;25.80;;;19.10;;
58896;SDS011;44677;52.378;10.400;2023-04-09T11:40:21;27.20;;;18.70;;
58896;SDS011;44677;52.378;10.400;2023-04-09T11:45:23;27.60;;;19.40;;
58896;SDS011;44677;52.378;10.400;2023-04-09T11:47:51;26.80;;;18.80;;
58896;SDS011;44677;52.378;10.400;2023-04-09T11:50:17;27.00;;;19.40;;
58896;SDS011;44677;52.378;10.400;2023-04-09T11:52:43;28.20;;;19.10;;
58896;SDS011;44677;52.378;10.400;2023-04-09T11:55:10;27.90;;;19.10;;
58896;SDS011;44677;52.378;10.400;2023-04-09T11:57:45;27.70;;;19.90;;
58896;SDS011;44677;52.378;10.400;2023-04-09T12:00:15;27.60;;;17.00;;
58896;SDS011;44677;52.378;10.400;2023-04-09T12:02:43;24.40;;;18.60;;
58896;SDS011;44677;52.378;10.400;2023-04-09T12:05:11;25.60;;;18.20;;
58896;SDS011;44677;52.378;10.400;2023-04-09T12:07:38;28.30;;;20.00;;
58896;SDS011;44677;52.378;10.400;2023-04-09T12:10:08;25.90;;;19.20;;
58896;SDS011;44677;52.378;10.400;2023-04-09T12:12:43;26.70;;;20.30;;
58896;SDS011;44677;52.378;10.400;2023-04-09T12:17:46;26.70;;;18.80;;
58896;SDS011;44677;52.378;10.400;2023-04-09T12:20:38;26.90;;;19.60;;
58896;SDS011;44677;52.378;10.400;2023-04-09T12:23:05;25.30;;;18.60;;
58896;SDS011;44677;52.378;10.400;2023-04-09T12:25:32;24.00;;;18.20;;
58896;SDS011;44677;52.378;10.400;2023-04-09T12:28:00;26.30;;;20.00;;
58896;SDS011;44677;52.378;10.400;2023-04-09T12:30:27;26.40;;;19.30;;
58896;SDS011;44677;52.378;10.400;2023-04-09T12:32:53;29.70;;;20.20;;
58896;SDS011;44677;52.378;10.400;2023-04-09T12:35:20;25.40;;;17.80;;
58896;SDS011;44677;52.378;10.400;2023-04-09T12:37:45;27.90;;;19.40;;
58896;SDS011;44677;52.378;10.400;2023-04-09T12:40:11;24.10;;;18.00;;
58896;SDS011;44677;52.378;10.400;2023-04-09T12:42:39;26.20;;;18.60;;
58896;SDS011;44677;52.378;10.400;2023-04-09T12:45:05;25.20;;;19.10;;
58896;SDS011;44677;52.378;10.400;2023-04-09T12:47:33;24.40;;;17.50;;
58896;SDS011;44677;52.378;10.400;2023-04-09T12:49:58;22.30;;;16.80;;
58896;SDS011;44677;52.378;10.400;2023-04-09T12:52:23;21.40;;;16.00;;
58896;SDS011;44677;52.378;10.400;2023-04-09T12:54:50;21.50;;;16.50;;
58896;SDS011;44677;52.378;10.400;2023-04-09T12:57:16;26.90;;;19.00;;
58896;SDS011;44677;52.378;10.400;2023-04-09T12:59:41;23.50;;;18.50;;
58896;SDS011;44677;52.378;10.400;2023-04-09T13:02:07;22.50;;;16.40;;
58896;SDS011;44677;52.378;10.400;2023-04-09T13:04:32;23.00;;;17.00;;
58896;SDS011;44677;52.378;10.400;2023-04-09T13:06:58;25.60;;;18.10;;
58896;SDS011;44677;52.378;10.400;2023-04-09T13:09:23;23.60;;;17.60;;
58896;SDS011;44677;52.378;10.400;2023-04-09T13:11:50;23.50;;;16.80;;
58896;SDS011;44677;52.378;10.400;2023-04-09T13:14:15;22.30;;;15.90;;
58896;SDS011;44677;52.378;10.400;2023-04-09T13:16:41;24.40;;;17.50;;
58896;SDS011;44677;52.378;10.400;2023-04-09T13:19:08;24.70;;;17.60;;
58896;SDS011;44677;52.378;10.400;2023-04-09T13:21:34;22.60;;;17.40;;
58896;SDS011;44677;52.378;10.400;2023-04-09T13:23:59;23.00;;;17.60;;
58896;SDS011;44677;52.378;10.400;2023-04-09T13:26:25;22.10;;;17.20;;
58896;SDS011;44677;52.378;10.400;2023-04-09T13:28:50;25.60;;;17.80;;
58896;SDS011;44677;52.378;10.400;2023-04-09T13:31:16;22.90;;;17.10;;
58896;SDS011;44677;52.378;10.400;2023-04-09T13:33:42;21.90;;;16.40;;
58896;SDS011;44677;52.378;10.400;2023-04-09T13:36:07;21.50;;;16.60;;
58896;SDS011;44677;52.378;10.400;2023-04-09T13:38:33;21.30;;;16.30;;
58896;SDS011;44677;52.378;10.400;2023-04-09T13:40:58;20.10;;;16.10;;
58896;SDS011;44677;52.378;10.400;2023-04-09T13:43:24;23.70;;;15.80;;
58896;SDS011;44677;52.378;10.400;2023-04-09T13:45:52;21.40;;;16.60;;
58896;SDS011;44677;52.378;10.400;2023-04-09T13:48:19;22.60;;;16.90;;
58896;SDS011;44677;52.378;10.400;2023-04-09T13:53:10;22.30;;;16.00;;
58896;SDS011;44677;52.378;10.400;2023-04-09T13:55:36;21.50;;;16.70;;
58896;SDS011;44677;52.378;10.400;2023-04-09T13:58:01;22.00;;;15.70;;
58896;SDS011;44677;52.378;10.400;2023-04-09T14:00:27;21.20;;;16.20;;
58896;SDS011;44677;52.378;10.400;2023-04-09T14:02:52;22.60;;;16.60;;
58896;SDS011;44677;52.378;10.400;2023-04-09T14:05:17;19.80;;;14.70;;
58896;SDS011;44677;52.378;10.400;2023-04-09T14:07:43;19.90;;;15.70;;
58896;SDS011;44677;52.378;10.400;2023-04-09T14:10:08;20.00;;;15.40;;
58896;SDS011;44677;52.378;10.400;2023-04-09T14:12:34;21.00;;;15.80;;
58896;SDS011;44677;52.378;10.400;2023-04-09T14:14:59;22.40;;;15.00;;
58896;SDS011;44677;52.378;10.400;2023-04-09T14:17:25;20.40;;;15.80;;
58896;SDS011;44677;52.378;10.400;2023-04-09T14:19:50;21.50;;;16.40;;
58896;SDS011;44677;52.378;10.400;2023-04-09T14:22:16;19.40;;;15.50;;
58896;SDS011;44677;52.378;10.400;2023-04-09T14:24:41;23.90;;;17.70;;
58896;SDS011;44677;52.378;10.400;2023-04-09T14:27:07;22.20;;;16.20;;
58896;SDS011;44677;52.378;10.400;2023-04-09T14:29:33;22.00;;;16.20;;
58896;SDS011;44677;52.378;10.400;2023-04-09T14:31:59;19.70;;;15.90;;
58896;SDS011;44677;52.378;10.400;2023-04-09T14:34:25;19.50;;;15.60;;
58896;SDS011;44677;52.378;10.400;2023-04-09T14:36:51;21.10;;;15.30;;
58896;SDS011;44677;52.378;10.400;2023-04-09T14:39:17;22.20;;;15.60;;
58896;SDS011;44677;52.378;10.400;2023-04-09T14:41:43;19.30;;;15.70;;
58896;SDS011;44677;52.378;10.400;2023-04-09T14:44:08;20.60;;;15.90;;
58896;SDS011;44677;52.378;10.400;2023-04-09T14:46:34;20.40;;;15.50;;